createdAt,value
2023-05-18T00:01:54.043Z,58.90
2023-05-18T00:04:26.280Z,58.90
2023-05-18T00:06:57.152Z,58.90
2023-05-18T00:09:25.708Z,58.90
2023-05-18T00:11:55.159Z,58.90
2023-05-18T00:14:23.285Z,58.90
2023-05-18T00:16:53.823Z,58.90
2023-05-18T00:19:22.621Z,58.90
2023-05-18T00:21:51.271Z,58.80
2023-05-18T00:24:20.249Z,58.80
2023-05-18T00:26:49.221Z,58.80
2023-05-18T00:29:18.500Z,58.90
2023-05-18T00:31:46.388Z,58.90
2023-05-18T00:34:15.548Z,58.90
2023-05-18T00:36:43.413Z,59.00
2023-05-18T00:39:11.974Z,58.90
2023-05-18T00:41:39.897Z,58.90
2023-05-18T00:44:07.685Z,58.90
2023-05-18T00:46:37.146Z,58.90
2023-05-18T00:49:05.519Z,58.90
2023-05-18T00:51:34.230Z,59.00
2023-05-18T00:54:03.742Z,58.90
2023-05-18T00:56:33.964Z,59.00
2023-05-18T00:59:03.291Z,58.90
2023-05-18T01:01:34.735Z,58.90
2023-05-18T01:04:05.097Z,58.80
2023-05-18T01:06:36.536Z,58.80
2023-05-18T01:09:07.139Z,58.80
2023-05-18T01:11:41.854Z,58.80
2023-05-18T01:14:15.236Z,58.80
2023-05-18T01:16:49.813Z,58.80
2023-05-18T01:19:44.790Z,58.80
2023-05-18T01:22:29.697Z,58.80
2023-05-18T01:25:05.243Z,58.80
2023-05-18T01:27:37.664Z,58.80
2023-05-18T01:30:06.952Z,58.80
2023-05-18T01:32:42.493Z,58.70
2023-05-18T01:35:10.915Z,58.80
2023-05-18T01:37:38.697Z,58.80
2023-05-18T01:40:09.515Z,58.80
2023-05-18T01:42:46.068Z,58.80
2023-05-18T01:45:22.654Z,58.80
2023-05-18T01:47:54.480Z,58.80
2023-05-18T01:50:28.951Z,58.80
2023-05-18T01:53:05.821Z,58.70
2023-05-18T01:55:36.767Z,58.80
2023-05-18T01:58:07.732Z,58.80
2023-05-18T02:00:35.926Z,58.70
2023-05-18T02:03:04.106Z,58.70
2023-05-18T02:05:32.408Z,58.80
2023-05-18T02:08:00.359Z,58.80
2023-05-18T02:10:28.145Z,58.80
2023-05-18T02:12:55.912Z,58.80
2023-05-18T02:15:25.283Z,58.70
2023-05-18T02:17:58.122Z,58.70
2023-05-18T02:20:27.435Z,58.70
2023-05-18T02:22:56.131Z,58.80
2023-05-18T02:25:24.101Z,58.80
2023-05-18T02:27:52.687Z,58.80
2023-05-18T02:30:20.914Z,58.70
2023-05-18T02:32:50.089Z,58.80
2023-05-18T02:35:18.509Z,58.80
2023-05-18T02:37:47.242Z,58.80
2023-05-18T02:40:16.332Z,58.80
2023-05-18T02:42:44.208Z,58.80
2023-05-18T02:45:12.317Z,58.80
2023-05-18T02:47:40.182Z,58.80
2023-05-18T02:50:10.106Z,58.80
2023-05-18T02:52:38.673Z,58.70
2023-05-18T02:55:07.114Z,58.80
2023-05-18T02:57:34.945Z,58.70
2023-05-18T03:00:02.694Z,58.80
2023-05-18T03:02:30.723Z,58.80
2023-05-18T03:04:58.530Z,58.80
2023-05-18T03:07:27.747Z,58.90
2023-05-18T03:09:55.624Z,58.70
2023-05-18T03:12:23.347Z,58.70
2023-05-18T03:14:51.127Z,58.80
2023-05-18T03:17:18.961Z,58.90
2023-05-18T03:19:46.736Z,58.90
2023-05-18T03:22:14.519Z,58.90
2023-05-18T03:24:44.909Z,58.90
2023-05-18T03:27:16.524Z,58.90
2023-05-18T03:29:44.323Z,58.90
2023-05-18T03:32:12.270Z,58.90
2023-05-18T03:34:40.051Z,58.90
2023-05-18T03:37:07.792Z,58.90
2023-05-18T03:39:35.851Z,58.90
2023-05-18T03:42:05.163Z,58.90
2023-05-18T03:44:33.056Z,58.90
2023-05-18T03:47:00.822Z,58.90
2023-05-18T03:49:29.747Z,58.90
2023-05-18T03:51:57.618Z,58.90
2023-05-18T03:54:25.470Z,58.90
2023-05-18T03:56:53.744Z,58.90
2023-05-18T03:59:22.822Z,58.90
2023-05-18T04:01:53.823Z,58.90
2023-05-18T04:04:23.346Z,58.90
2023-05-18T04:06:52.417Z,59.00
2023-05-18T04:09:21.791Z,58.90
2023-05-18T04:11:49.626Z,58.90
2023-05-18T04:14:17.453Z,58.90
2023-05-18T04:16:46.870Z,58.90
2023-05-18T04:19:15.918Z,58.90
2023-05-18T04:21:43.807Z,58.80
2023-05-18T04:24:14.413Z,58.80
2023-05-18T04:26:42.869Z,58.80
2023-05-18T04:29:13.323Z,58.90
2023-05-18T04:31:44.706Z,58.90
2023-05-18T04:34:14.206Z,58.90
2023-05-18T04:36:43.806Z,58.80
2023-05-18T04:39:12.354Z,58.80
2023-05-18T04:41:42.208Z,58.80
2023-05-18T04:44:10.590Z,58.80
2023-05-18T04:46:40.706Z,58.80
2023-05-18T04:49:09.200Z,58.80
2023-05-18T04:51:38.302Z,58.80
2023-05-18T04:54:08.968Z,58.70
2023-05-18T04:56:36.877Z,58.80
2023-05-18T04:59:04.844Z,58.70
2023-05-18T05:01:32.683Z,58.70
2023-05-18T05:04:00.980Z,58.70
2023-05-18T05:06:28.786Z,58.70
2023-05-18T05:08:57.841Z,58.70
2023-05-18T05:11:25.805Z,58.70
2023-05-18T05:13:53.670Z,58.80
2023-05-18T05:16:21.486Z,58.80
2023-05-18T05:18:49.302Z,58.80
2023-05-18T05:21:17.056Z,58.80
2023-05-18T05:23:45.431Z,58.80
2023-05-18T05:26:14.581Z,58.80
2023-05-18T05:28:42.329Z,58.90
2023-05-18T05:31:10.304Z,58.90
2023-05-18T05:33:38.144Z,58.90
2023-05-18T05:36:06.375Z,58.90
2023-05-18T05:38:34.171Z,58.00
2023-05-18T05:41:02.442Z,58.00
2023-05-18T05:43:31.856Z,58.00
2023-05-18T05:45:59.703Z,58.00
2023-05-18T05:48:27.429Z,58.10
2023-05-18T05:50:55.232Z,58.20
2023-05-18T05:53:23.730Z,58.20
2023-05-18T05:55:54.685Z,58.20
2023-05-18T05:58:22.434Z,58.10
2023-05-18T06:00:51.590Z,58.10
2023-05-18T06:03:19.454Z,58.30
2023-05-18T06:05:47.532Z,58.20
2023-05-18T06:08:15.769Z,58.20
2023-05-18T06:10:44.100Z,58.20
2023-05-18T06:13:11.999Z,58.10
2023-05-18T06:15:39.752Z,58.10
2023-05-18T06:18:09.946Z,58.10
2023-05-18T06:20:40.597Z,58.20
2023-05-18T06:23:08.448Z,58.20
2023-05-18T06:25:36.473Z,58.10
2023-05-18T06:28:04.266Z,58.20
2023-05-18T06:30:35.355Z,58.30
2023-05-18T06:33:04.656Z,58.30
2023-05-18T06:35:33.922Z,58.20
2023-05-18T06:38:01.703Z,58.30
2023-05-18T06:40:29.558Z,58.10
2023-05-18T06:42:57.517Z,58.30
2023-05-18T06:45:25.428Z,58.30
2023-05-18T06:47:53.191Z,58.30
2023-05-18T06:50:21.685Z,58.20
2023-05-18T06:52:51.426Z,58.30
2023-05-18T06:55:20.014Z,58.20
2023-05-18T06:57:47.803Z,58.20
2023-05-18T07:00:16.591Z,58.20
2023-05-18T07:02:45.769Z,58.20
2023-05-18T07:05:13.639Z,58.40
2023-05-18T07:07:41.534Z,58.40
2023-05-18T07:10:11.511Z,58.40
2023-05-18T07:12:39.290Z,58.40
2023-05-18T07:15:08.769Z,58.40
2023-05-18T07:17:36.873Z,58.30
2023-05-18T07:20:06.296Z,58.30
2023-05-18T07:22:34.229Z,58.40
2023-05-18T07:25:02.128Z,58.50
2023-05-18T07:27:31.422Z,59.10
2023-05-18T07:30:11.616Z,58.50
2023-05-18T07:32:39.360Z,58.30
2023-05-18T07:35:07.701Z,58.30
2023-05-18T07:37:35.908Z,58.30
2023-05-18T07:40:04.472Z,58.40
2023-05-18T07:42:34.022Z,58.50
2023-05-18T07:45:02.355Z,58.50
2023-05-18T07:47:30.158Z,58.60
2023-05-18T07:49:57.928Z,58.70
2023-05-18T07:52:26.124Z,58.70
2023-05-18T07:54:56.487Z,58.50
2023-05-18T07:57:25.509Z,58.50
2023-05-18T07:59:55.149Z,58.40
2023-05-18T08:02:24.202Z,58.40
2023-05-18T08:04:53.322Z,58.50
2023-05-18T08:07:21.690Z,58.40
2023-05-18T08:09:49.500Z,58.40
2023-05-18T08:12:17.224Z,58.40
2023-05-18T08:14:45.267Z,58.40
2023-05-18T08:17:14.391Z,58.30
2023-05-18T08:19:42.504Z,58.30
2023-05-18T08:22:11.371Z,58.30
2023-05-18T08:24:39.195Z,58.30
2023-05-18T08:27:08.403Z,58.30
2023-05-18T08:29:36.238Z,58.30
2023-05-18T08:32:05.262Z,58.30
2023-05-18T08:34:34.618Z,58.40
2023-05-18T08:37:02.538Z,58.40
2023-05-18T08:39:31.874Z,58.30
2023-05-18T08:42:03.502Z,58.20
2023-05-18T08:44:36.390Z,58.40
2023-05-18T08:47:08.697Z,58.30
2023-05-18T08:49:38.517Z,58.30
2023-05-18T08:52:08.941Z,58.30
2023-05-18T08:54:38.318Z,58.20
2023-05-18T08:57:09.868Z,58.20
2023-05-18T08:59:43.075Z,58.20
2023-05-18T09:02:11.636Z,58.10
2023-05-18T09:04:44.760Z,58.10
2023-05-18T09:07:13.360Z,58.00
2023-05-18T09:09:44.512Z,57.90
2023-05-18T09:12:13.396Z,57.90
2023-05-18T09:14:43.657Z,57.90
2023-05-18T09:17:11.670Z,57.80
2023-05-18T09:19:41.059Z,57.70
2023-05-18T09:22:08.954Z,57.60
2023-05-18T09:24:37.910Z,57.60
2023-05-18T09:27:06.655Z,57.60
2023-05-18T09:29:34.491Z,57.70
2023-05-18T09:32:04.982Z,57.60
2023-05-18T09:34:45.430Z,57.60
2023-05-18T09:37:16.745Z,57.60
2023-05-18T09:39:44.669Z,57.60
2023-05-18T09:42:12.802Z,57.60
2023-05-18T09:44:40.544Z,57.70
2023-05-18T09:47:11.756Z,57.50
2023-05-18T09:49:41.361Z,57.50
2023-05-18T09:52:10.535Z,57.40
2023-05-18T09:54:39.042Z,57.40
2023-05-18T09:57:10.972Z,57.40
2023-05-18T09:59:39.228Z,57.40
2023-05-18T10:02:08.739Z,57.40
2023-05-18T10:04:38.514Z,57.30
2023-05-18T10:07:13.331Z,57.40
2023-05-18T10:09:41.768Z,57.20
2023-05-18T10:12:13.705Z,57.20
2023-05-18T10:14:42.757Z,57.20
2023-05-18T10:17:15.742Z,57.10
2023-05-18T10:19:45.159Z,57.10
2023-05-18T10:22:17.301Z,57.00
2023-05-18T10:24:50.820Z,57.00
2023-05-18T10:27:22.104Z,57.00
2023-05-18T10:29:52.533Z,57.00
2023-05-18T10:32:24.241Z,57.00
2023-05-18T10:34:54.173Z,57.10
2023-05-18T10:37:25.223Z,57.20
2023-05-18T10:39:55.766Z,56.90
2023-05-18T10:42:24.546Z,56.80
2023-05-18T10:44:54.486Z,56.70
2023-05-18T10:47:23.242Z,56.70
2023-05-18T10:49:51.214Z,57.00
2023-05-18T10:52:19.336Z,57.00
2023-05-18T10:54:50.170Z,57.00
2023-05-18T10:57:21.155Z,57.10
2023-05-18T10:59:50.118Z,57.20
2023-05-18T11:02:19.292Z,57.20
2023-05-18T11:04:48.346Z,57.30
2023-05-18T11:07:17.305Z,57.00
2023-05-18T11:09:46.232Z,56.90
2023-05-18T11:12:17.784Z,56.70
2023-05-18T11:14:51.273Z,56.70
2023-05-18T11:17:21.119Z,56.70
2023-05-18T11:20:15.617Z,56.70
2023-05-18T11:22:48.912Z,56.80
2023-05-18T11:25:39.866Z,56.70
2023-05-18T11:28:12.026Z,56.80
2023-05-18T11:30:49.997Z,56.80
2023-05-18T11:33:23.404Z,56.90
2023-05-18T11:36:03.572Z,56.90
2023-05-18T11:38:52.630Z,57.00
2023-05-18T11:41:35.000Z,57.10
2023-05-18T11:44:17.027Z,57.10
2023-05-18T11:46:57.180Z,57.00
2023-05-18T11:49:26.302Z,57.10
2023-05-18T11:52:02.357Z,57.20
2023-05-18T11:54:34.685Z,57.10
2023-05-18T11:57:03.073Z,57.00
2023-05-18T11:59:33.701Z,57.00
2023-05-18T12:02:02.915Z,57.00
2023-05-18T12:04:32.538Z,57.10
2023-05-18T12:07:01.575Z,57.10
2023-05-18T12:09:32.414Z,57.70
2023-05-18T12:12:00.195Z,57.10
2023-05-18T12:14:28.612Z,57.10
2023-05-18T12:16:59.717Z,57.10
2023-05-18T12:19:27.777Z,57.10
2023-05-18T12:21:57.838Z,57.00
2023-05-18T12:24:26.711Z,56.90
2023-05-18T12:26:54.686Z,56.80
2023-05-18T12:29:22.960Z,56.80
2023-05-18T12:31:50.795Z,56.80
2023-05-18T12:34:20.280Z,56.80
2023-05-18T12:36:54.871Z,56.90
2023-05-18T12:39:22.801Z,56.80
2023-05-18T12:41:50.755Z,56.80
2023-05-18T12:44:18.732Z,56.80
2023-05-18T12:46:47.080Z,57.00
2023-05-18T12:49:14.986Z,56.80
2023-05-18T12:51:44.291Z,56.80
2023-05-18T12:54:12.362Z,56.80
2023-05-18T12:57:02.082Z,56.70
2023-05-18T12:59:30.301Z,56.70
2023-05-18T13:01:59.388Z,56.70
2023-05-18T13:04:34.297Z,56.70
2023-05-18T13:07:03.661Z,56.60
2023-05-18T13:09:31.454Z,56.60
2023-05-18T13:12:07.277Z,56.70
2023-05-18T13:14:39.570Z,56.70
2023-05-18T13:17:07.390Z,56.60
2023-05-18T13:19:36.600Z,56.60
2023-05-18T13:22:06.218Z,56.60
2023-05-18T13:24:34.403Z,56.50
2023-05-18T13:27:02.359Z,56.40
2023-05-18T13:29:30.063Z,56.50
2023-05-18T13:31:57.889Z,56.40
2023-05-18T13:34:25.798Z,56.40
2023-05-18T13:36:53.622Z,56.60
2023-05-18T13:39:23.039Z,56.60
2023-05-18T13:41:50.758Z,56.60
2023-05-18T13:44:18.668Z,56.60
2023-05-18T13:46:46.522Z,56.40
2023-05-18T13:49:14.344Z,56.50
2023-05-18T13:51:42.177Z,56.60
2023-05-18T13:54:10.067Z,56.60
2023-05-18T13:56:39.205Z,56.60
2023-05-18T13:59:07.021Z,56.60
2023-05-18T14:01:35.105Z,56.50
2023-05-18T14:04:02.893Z,56.50
2023-05-18T14:06:31.867Z,56.50
2023-05-18T14:08:59.599Z,56.40
2023-05-18T14:11:27.344Z,56.40
2023-05-18T14:13:58.509Z,56.40
2023-05-18T14:16:26.438Z,56.40
2023-05-18T14:18:54.235Z,56.30
2023-05-18T14:21:22.062Z,56.40
2023-05-18T14:23:49.785Z,56.40
2023-05-18T14:26:17.735Z,56.40
2023-05-18T14:28:46.232Z,56.40
2023-05-18T14:31:15.420Z,56.40
2023-05-18T14:33:43.400Z,56.40
2023-05-18T14:36:11.259Z,56.40
2023-05-18T14:38:39.123Z,56.40
2023-05-18T14:41:06.957Z,56.30
2023-05-18T14:43:34.731Z,56.30
2023-05-18T14:46:08.616Z,56.30
2023-05-18T14:48:38.481Z,56.30
2023-05-18T14:51:06.618Z,56.30
2023-05-18T14:53:34.686Z,56.30
2023-05-18T14:56:05.946Z,56.30
2023-05-18T14:58:33.774Z,56.20
2023-05-18T15:01:01.737Z,56.30
2023-05-18T15:03:29.945Z,56.20
2023-05-18T15:05:59.081Z,56.20
2023-05-18T15:08:27.094Z,56.20
2023-05-18T15:10:54.859Z,56.30
2023-05-18T15:13:22.653Z,56.20
2023-05-18T15:15:50.854Z,56.20
2023-05-18T15:18:18.718Z,56.20
2023-05-18T15:20:46.914Z,56.10
2023-05-18T15:23:16.173Z,56.70
2023-05-18T15:25:44.491Z,56.00
2023-05-18T15:28:12.315Z,56.00
2023-05-18T15:30:40.096Z,56.10
2023-05-18T15:33:07.949Z,56.00
2023-05-18T15:35:36.331Z,56.00
2023-05-18T15:38:04.149Z,56.00
2023-05-18T15:40:33.467Z,56.00
2023-05-18T15:43:01.722Z,55.90
2023-05-18T15:45:29.739Z,56.00
2023-05-18T15:47:57.864Z,55.90
2023-05-18T15:50:25.807Z,56.00
2023-05-18T15:52:53.730Z,56.50
2023-05-18T15:55:21.560Z,55.90
2023-05-18T15:57:50.669Z,55.90
2023-05-18T16:00:22.381Z,55.90
2023-05-18T16:02:50.536Z,56.00
2023-05-18T16:05:18.500Z,56.00
2023-05-18T16:07:46.258Z,56.00
2023-05-18T16:10:14.965Z,56.00
2023-05-18T16:12:42.836Z,56.00
2023-05-18T16:15:12.512Z,56.00
2023-05-18T16:17:40.353Z,56.10
2023-05-18T16:20:09.539Z,56.10
2023-05-18T16:22:37.316Z,56.10
2023-05-18T16:25:05.443Z,56.10
2023-05-18T16:27:33.314Z,56.10
2023-05-18T16:30:01.194Z,56.20
2023-05-18T16:32:31.847Z,56.20
2023-05-18T16:35:00.544Z,56.20
2023-05-18T16:37:28.420Z,56.30
2023-05-18T16:39:56.808Z,56.30
2023-05-18T16:42:25.793Z,56.30
2023-05-18T16:44:53.965Z,56.30
2023-05-18T16:47:22.180Z,56.30
2023-05-18T16:49:51.352Z,56.30
2023-05-18T16:52:19.188Z,56.30
2023-05-18T16:54:48.213Z,56.30
2023-05-18T16:57:16.289Z,56.30
2023-05-18T16:59:45.501Z,56.20
2023-05-18T17:02:14.191Z,56.30
2023-05-18T17:04:44.587Z,56.40
2023-05-18T17:07:17.641Z,56.30
2023-05-18T17:09:45.729Z,56.20
2023-05-18T17:12:13.613Z,56.30
2023-05-18T17:14:41.450Z,56.30
2023-05-18T17:17:09.581Z,56.30
2023-05-18T17:19:42.039Z,56.20
2023-05-18T17:22:17.822Z,56.80
2023-05-18T17:24:47.277Z,56.20
2023-05-18T17:27:15.467Z,56.30
2023-05-18T17:29:44.705Z,56.20
2023-05-18T17:32:15.916Z,56.30
2023-05-18T17:34:43.977Z,56.20
2023-05-18T17:37:13.215Z,56.30
2023-05-18T17:39:41.013Z,56.20
2023-05-18T17:42:10.758Z,56.70
2023-05-18T17:44:38.533Z,56.70
2023-05-18T17:47:08.015Z,56.20
2023-05-18T17:49:37.314Z,56.20
2023-05-18T17:52:05.734Z,56.10
2023-05-18T17:54:33.563Z,56.10
2023-05-18T17:57:01.709Z,56.10
2023-05-18T17:59:30.911Z,56.10
2023-05-18T18:01:58.905Z,56.00
2023-05-18T18:04:30.710Z,56.10
2023-05-18T18:07:01.694Z,56.10
2023-05-18T18:09:29.576Z,56.10
2023-05-18T18:11:58.169Z,56.10
2023-05-18T18:14:26.096Z,56.10
2023-05-18T18:16:59.776Z,56.10
2023-05-18T18:19:28.289Z,56.00
2023-05-18T18:21:56.594Z,56.10
2023-05-18T18:24:24.397Z,56.10
2023-05-18T18:26:52.887Z,56.00
2023-05-18T18:29:20.725Z,56.10
2023-05-18T18:31:48.571Z,56.10
2023-05-18T18:34:22.271Z,56.10
2023-05-18T18:36:50.110Z,56.10
2023-05-18T18:39:19.745Z,56.10
2023-05-18T18:41:51.066Z,56.00
2023-05-18T18:44:19.782Z,56.10
2023-05-18T18:46:48.083Z,56.00
2023-05-18T18:49:17.580Z,56.00
2023-05-18T18:51:46.609Z,56.10
2023-05-18T18:54:14.631Z,56.00
2023-05-18T18:56:43.896Z,56.00
2023-05-18T18:59:12.622Z,56.00
2023-05-18T19:01:40.993Z,56.00
2023-05-18T19:04:09.481Z,56.10
2023-05-18T19:06:39.467Z,56.10
2023-05-18T19:09:07.389Z,56.10
2023-05-18T19:11:35.357Z,56.10
2023-05-18T19:14:04.488Z,56.10
2023-05-18T19:16:32.875Z,56.10
2023-05-18T19:19:01.311Z,56.00
2023-05-18T19:21:31.768Z,56.00
2023-05-18T19:24:02.120Z,55.90
2023-05-18T19:26:30.744Z,55.90
2023-05-18T19:28:59.698Z,55.80
2023-05-18T19:31:28.079Z,55.80
2023-05-18T19:34:02.787Z,55.70
2023-05-18T19:36:31.331Z,55.70
2023-05-18T19:38:59.134Z,55.80
2023-05-18T19:41:28.376Z,55.90
2023-05-18T19:43:56.526Z,56.00
2023-05-18T19:46:24.476Z,55.90
2023-05-18T19:48:54.154Z,56.00
2023-05-18T19:51:25.116Z,55.90
2023-05-18T19:53:53.026Z,55.90
2023-05-18T19:56:22.166Z,55.80
2023-05-18T19:58:51.670Z,55.80
2023-05-18T20:01:20.234Z,56.00
2023-05-18T20:03:51.991Z,56.10
2023-05-18T20:06:21.558Z,56.00
2023-05-18T20:08:49.601Z,56.20
2023-05-18T20:11:19.657Z,56.20
2023-05-18T20:13:47.902Z,56.20
2023-05-18T20:16:17.373Z,56.20
2023-05-18T20:18:46.454Z,56.20
2023-05-18T20:21:14.255Z,56.30
2023-05-18T20:23:42.185Z,56.30
2023-05-18T20:26:10.000Z,56.30
2023-05-18T20:28:38.972Z,56.20
2023-05-18T20:31:06.824Z,56.20
2023-05-18T20:33:38.894Z,56.20
2023-05-18T20:36:09.031Z,56.20
2023-05-18T20:38:38.671Z,56.30
2023-05-18T20:41:07.989Z,56.30
2023-05-18T20:43:37.543Z,56.30
2023-05-18T20:46:05.915Z,56.30
2023-05-18T20:48:36.046Z,56.40
2023-05-18T20:51:04.291Z,56.40
2023-05-18T20:53:33.448Z,56.40
2023-05-18T20:56:02.232Z,56.40
2023-05-18T20:58:30.683Z,56.30
2023-05-18T21:00:58.454Z,56.40
2023-05-18T21:03:26.719Z,56.40
2023-05-18T21:05:56.538Z,56.30
2023-05-18T21:08:24.254Z,56.40
2023-05-18T21:10:52.072Z,56.30
2023-05-18T21:13:20.029Z,56.30
2023-05-18T21:15:47.859Z,56.40
2023-05-18T21:18:15.937Z,56.40
2023-05-18T21:20:43.737Z,56.40
2023-05-18T21:23:12.825Z,56.40
2023-05-18T21:25:40.623Z,56.50
2023-05-18T21:28:08.479Z,56.50
2023-05-18T21:30:36.542Z,56.50
2023-05-18T21:33:04.424Z,56.40
2023-05-18T21:35:32.232Z,56.40
2023-05-18T21:38:00.506Z,56.40
2023-05-18T21:40:30.000Z,56.60
2023-05-18T21:42:57.864Z,56.50
2023-05-18T21:45:26.154Z,56.40
2023-05-18T21:47:53.956Z,56.40
2023-05-18T21:50:21.839Z,56.40
2023-05-18T21:52:49.584Z,56.50
2023-05-18T21:55:17.554Z,56.40
2023-05-18T21:57:46.616Z,56.40
2023-05-18T22:00:16.646Z,56.50
2023-05-18T22:02:44.609Z,56.40
2023-05-18T22:05:12.569Z,56.50
2023-05-18T22:07:40.496Z,56.50
2023-05-18T22:10:09.202Z,56.50
2023-05-18T22:12:40.298Z,56.60
2023-05-18T22:15:11.544Z,56.60
2023-05-18T22:17:39.784Z,56.60
2023-05-18T22:20:11.164Z,56.70
2023-05-18T22:22:40.219Z,56.70
2023-05-18T22:25:08.986Z,56.70
2023-05-18T22:27:38.590Z,56.80
2023-05-18T22:30:07.066Z,56.80
2023-05-18T22:32:36.473Z,56.80
2023-05-18T22:35:04.915Z,56.80
2023-05-18T22:37:32.753Z,56.70
2023-05-18T22:40:00.553Z,56.70
2023-05-18T22:42:28.273Z,57.60
2023-05-18T22:44:56.299Z,57.60
2023-05-18T22:47:24.095Z,57.50
2023-05-18T22:49:53.230Z,57.50
2023-05-18T22:52:21.233Z,57.50
2023-05-18T22:54:49.525Z,57.50
2023-05-18T22:57:17.356Z,57.60
2023-05-18T22:59:45.137Z,57.60
2023-05-18T23:02:13.067Z,57.60
2023-05-18T23:04:40.932Z,57.60
2023-05-18T23:07:10.124Z,57.50
2023-05-18T23:09:39.709Z,57.60
2023-05-18T23:12:10.253Z,57.60
2023-05-18T23:14:38.037Z,57.60
2023-05-18T23:17:06.458Z,57.70
2023-05-18T23:19:35.078Z,57.60
2023-05-18T23:22:02.939Z,57.60
2023-05-18T23:24:32.064Z,57.60
2023-05-18T23:26:59.849Z,57.60
2023-05-18T23:29:27.642Z,57.60
2023-05-18T23:31:55.616Z,57.60
2023-05-18T23:34:23.994Z,57.70
2023-05-18T23:36:54.606Z,57.60
2023-05-18T23:39:23.157Z,57.70
2023-05-18T23:41:54.686Z,57.70
2023-05-18T23:44:23.062Z,57.80
2023-05-18T23:46:51.472Z,57.70
2023-05-18T23:49:19.887Z,57.80
2023-05-18T23:51:52.007Z,57.80
2023-05-18T23:54:20.561Z,57.80
2023-05-18T23:56:52.112Z,57.80
2023-05-18T23:59:20.426Z,57.80
